Terminal Aerodrome Forecast
Issued by NWS

Home | Current Version | Previous Version | Text Only | Print | Product List | Glossary On
Versions: 1 2 3 4 5 6 7 8 9 10 11 12 13 14
000
FTAK31 PANC 291218 AAA
TAFAEN
TAF AMD
PAEN 291218Z 2912/3012 VRB03KT P6SM VCFG SCT005 BKN250
      TEMPO 2912/2915 2SM BR
     FM291800 02010KT P6SM SCT250=

USA.gov is the U.S. government's official web portal to all federal, state and local government web resources and services.